createdAt,value
2022-11-05T00:00:51.060Z,1277.19
2022-11-05T00:01:51.143Z,1277.19
2022-11-05T00:02:50.997Z,1277.19
2022-11-05T00:03:51.059Z,1277.19
2022-11-05T00:04:51.028Z,1277.19
2022-11-05T00:05:50.981Z,1277.19
2022-11-05T00:06:51.008Z,1277.19
2022-11-05T00:07:50.931Z,1277.19
2022-11-05T00:08:50.922Z,1277.19
2022-11-05T00:09:51.197Z,1277.19
2022-11-05T00:10:50.897Z,1277.19
2022-11-05T00:11:50.928Z,1277.19
2022-11-05T00:12:50.902Z,1277.19
2022-11-05T00:13:50.872Z,1277.19
2022-11-05T00:14:50.868Z,1277.19
2022-11-05T00:15:50.865Z,1277.19
2022-11-05T00:16:50.822Z,1277.19
2022-11-05T00:17:50.864Z,1277.19
2022-11-05T00:18:50.831Z,1277.19
2022-11-05T00:19:51.111Z,1277.19
2022-11-05T00:20:50.782Z,1277.19
2022-11-05T00:21:50.770Z,1277.19
2022-11-05T00:22:50.753Z,1277.19
2022-11-05T00:23:50.781Z,1277.19
2022-11-05T00:24:50.728Z,1277.19
2022-11-05T00:25:50.735Z,1277.19
2022-11-05T00:26:51.097Z,1277.19
2022-11-05T00:27:50.784Z,1277.19
2022-11-05T00:28:50.768Z,1277.19
2022-11-05T00:29:50.676Z,1277.19
2022-11-05T00:30:50.677Z,1277.19
2022-11-05T00:31:50.655Z,1277.19
2022-11-05T00:32:50.656Z,1277.19
2022-11-05T00:33:50.652Z,1277.19
2022-11-05T00:34:50.847Z,1277.19
2022-11-05T00:35:50.597Z,1277.19
2022-11-05T00:36:50.605Z,1277.19
2022-11-05T00:37:50.863Z,1277.19
2022-11-05T00:38:50.579Z,1277.19
2022-11-05T00:39:50.567Z,1277.19
2022-11-05T00:40:50.628Z,1277.19
2022-11-05T00:41:50.590Z,1277.19
2022-11-05T00:42:50.554Z,1277.19
2022-11-05T00:43:50.518Z,1277.19
2022-11-05T00:44:50.520Z,1277.19
2022-11-05T00:45:50.486Z,1277.19
2022-11-05T00:46:50.493Z,1277.19
2022-11-05T00:47:50.505Z,1277.19
2022-11-05T00:48:50.446Z,1277.19
2022-11-05T00:49:50.527Z,1277.19
2022-11-05T00:50:50.519Z,1277.19
2022-11-05T00:51:50.469Z,1277.19
2022-11-05T00:52:50.445Z,1277.19
2022-11-05T00:53:50.422Z,1277.19
2022-11-05T00:54:50.385Z,1277.19
2022-11-05T00:55:50.373Z,1277.19
2022-11-05T00:56:50.353Z,1277.19
2022-11-05T00:57:50.489Z,1277.19
2022-11-05T00:58:50.352Z,1277.19
2022-11-05T00:59:50.336Z,1277.19
2022-11-05T01:00:50.313Z,1277.19
2022-11-05T01:01:50.397Z,1277.19
2022-11-05T01:02:50.507Z,1277.19
2022-11-05T01:03:51.807Z,1277.19
2022-11-05T01:04:50.406Z,1277.19
2022-11-05T01:05:50.290Z,1277.19
2022-11-05T01:06:50.248Z,1277.19
2022-11-05T01:07:50.352Z,1277.19
2022-11-05T01:08:50.250Z,1277.19
2022-11-05T01:09:50.204Z,1277.19
2022-11-05T01:10:50.242Z,1277.19
2022-11-05T01:11:50.209Z,1277.19
2022-11-05T01:12:50.260Z,1277.19
2022-11-05T01:13:50.226Z,1277.19
2022-11-05T01:14:50.146Z,1277.19
2022-11-05T01:15:50.135Z,1277.19
2022-11-05T01:16:50.125Z,1277.19
2022-11-05T01:17:50.100Z,1277.19
2022-11-05T01:18:50.157Z,1277.19
2022-11-05T01:19:50.140Z,1277.19
2022-11-05T01:20:50.084Z,1277.19
2022-11-05T01:21:50.077Z,1277.19
2022-11-05T01:22:50.097Z,1277.19
2022-11-05T01:23:50.110Z,1277.19
2022-11-05T01:24:50.176Z,1277.19
2022-11-05T01:25:50.012Z,1277.19
2022-11-05T01:26:49.998Z,1277.19
2022-11-05T01:27:49.992Z,1277.19
2022-11-05T01:28:50.045Z,1277.19
2022-11-05T01:29:49.996Z,1277.19
2022-11-05T01:30:49.969Z,1277.19
2022-11-05T01:31:50.060Z,1277.19
2022-11-05T01:32:49.947Z,1277.19
2022-11-05T01:33:49.939Z,1277.19
2022-11-05T01:34:49.984Z,1277.19
2022-11-05T01:35:49.898Z,1277.19
2022-11-05T01:36:49.910Z,1277.19
2022-11-05T01:37:49.976Z,1277.19
2022-11-05T01:38:49.911Z,1277.19
2022-11-05T01:39:49.880Z,1277.19
2022-11-05T01:40:49.882Z,1277.19
2022-11-05T01:41:49.827Z,1277.19
2022-11-05T01:42:49.820Z,1277.19
2022-11-05T01:43:49.830Z,1277.19
2022-11-05T01:44:49.866Z,1277.19
2022-11-05T01:45:49.905Z,1277.19
2022-11-05T01:46:49.779Z,1277.19
2022-11-05T01:47:49.880Z,1277.19
2022-11-05T01:48:49.814Z,1277.19
2022-11-05T01:49:49.736Z,1277.19
2022-11-05T01:50:49.881Z,1277.19
2022-11-05T01:51:49.716Z,1277.19
2022-11-05T01:52:49.787Z,1277.19
2022-11-05T01:53:49.695Z,1277.19
2022-11-05T01:54:49.745Z,1277.19
2022-11-05T01:55:49.683Z,1277.19
2022-11-05T01:56:49.851Z,1277.19
2022-11-05T01:57:49.676Z,1277.19
2022-11-05T01:58:49.661Z,1277.19
2022-11-05T01:59:49.755Z,1277.19
2022-11-05T02:00:49.665Z,1277.19
2022-11-05T02:01:49.758Z,1277.19
2022-11-05T02:02:49.808Z,1277.19
2022-11-05T02:03:49.668Z,1277.19
2022-11-05T02:04:49.588Z,1277.19
2022-11-05T02:05:49.901Z,1277.19
2022-11-05T02:06:49.829Z,1277.19
2022-11-05T02:07:49.705Z,1277.19
2022-11-05T02:08:49.747Z,1277.19
2022-11-05T02:09:52.007Z,1277.19
2022-11-05T02:10:49.650Z,1277.19
2022-11-05T02:11:49.790Z,1277.19
2022-11-05T02:12:49.729Z,1277.19
2022-11-05T02:13:49.828Z,1277.19
2022-11-05T02:14:49.643Z,1277.19
2022-11-05T02:15:49.642Z,1277.19
2022-11-05T02:16:49.544Z,1277.19
2022-11-05T02:17:49.510Z,1277.19
2022-11-05T02:18:49.509Z,1277.19
2022-11-05T02:19:49.752Z,1277.19
2022-11-05T02:20:52.201Z,1277.19
2022-11-05T02:21:49.425Z,1277.19
2022-11-05T02:22:49.790Z,1277.19
2022-11-05T02:23:49.363Z,1277.19
2022-11-05T02:24:49.552Z,1277.19
2022-11-05T02:25:49.498Z,1277.19
2022-11-05T02:26:49.568Z,1277.19
2022-11-05T02:27:49.389Z,1277.19
2022-11-05T02:28:49.362Z,1277.19
2022-11-05T02:29:49.453Z,1277.19
2022-11-05T02:30:49.386Z,1277.19
2022-11-05T02:31:49.477Z,1277.19
2022-11-05T02:32:49.493Z,1277.19
2022-11-05T02:33:49.375Z,1277.19
2022-11-05T02:34:49.334Z,1277.19
2022-11-05T02:35:49.331Z,1277.19
2022-11-05T02:36:49.317Z,1277.19
2022-11-05T02:37:49.226Z,1277.19
2022-11-05T02:38:49.311Z,1277.19
2022-11-05T02:39:49.379Z,1277.19
2022-11-05T02:40:49.260Z,1277.19
2022-11-05T02:41:49.205Z,1277.19
2022-11-05T02:42:49.176Z,1277.19
2022-11-05T02:43:49.204Z,1277.19
2022-11-05T02:44:49.447Z,1277.19
2022-11-05T02:45:49.264Z,1277.19
2022-11-05T02:46:49.176Z,1277.19
2022-11-05T02:47:49.342Z,1277.19
2022-11-05T02:48:49.096Z,1277.19
2022-11-05T02:49:49.195Z,1277.19
2022-11-05T02:50:49.044Z,1277.19
2022-11-05T02:51:49.111Z,1277.19
2022-11-05T02:52:49.208Z,1277.19
2022-11-05T02:53:49.177Z,1277.19
2022-11-05T02:54:49.462Z,1277.19
2022-11-05T02:55:49.004Z,1277.19
2022-11-05T02:56:49.070Z,1277.19
2022-11-05T02:57:49.041Z,1277.19
2022-11-05T02:58:49.029Z,1277.19
2022-11-05T02:59:49.055Z,1277.19
2022-11-05T03:00:49.027Z,1277.19
2022-11-05T03:01:49.071Z,1277.19
2022-11-05T03:02:49.176Z,1277.19
2022-11-05T03:03:49.066Z,1277.19
2022-11-05T03:04:49.101Z,1277.19
2022-11-05T03:05:49.135Z,1277.19
2022-11-05T03:06:49.931Z,1277.19
2022-11-05T03:07:48.998Z,1277.19
2022-11-05T03:08:48.953Z,1277.19
2022-11-05T03:09:49.144Z,1277.19
2022-11-05T03:10:48.982Z,1277.19
2022-11-05T03:11:49.353Z,1277.19
2022-11-05T03:12:49.215Z,1277.19
2022-11-05T03:13:49.117Z,1277.19
2022-11-05T03:14:49.085Z,1277.19
2022-11-05T03:15:48.883Z,1277.19
2022-11-05T03:16:49.207Z,1277.19
2022-11-05T03:17:48.962Z,1277.19
2022-11-05T03:18:48.884Z,1277.19
2022-11-05T03:19:48.985Z,1277.19
2022-11-05T03:20:49.803Z,1277.19
2022-11-05T03:21:50.071Z,1277.19
2022-11-05T03:22:48.880Z,1277.19
2022-11-05T03:23:49.048Z,1277.19
2022-11-05T03:24:48.939Z,1277.19
2022-11-05T03:25:48.964Z,1277.19
2022-11-05T03:26:48.864Z,1277.19
2022-11-05T03:27:48.761Z,1277.19
2022-11-05T03:28:48.918Z,1277.19
2022-11-05T03:29:49.134Z,1277.19
2022-11-05T03:30:48.926Z,1277.19
2022-11-05T03:31:48.718Z,1277.19
2022-11-05T03:32:48.987Z,1277.19
2022-11-05T03:33:48.686Z,1277.19
2022-11-05T03:34:48.875Z,1277.19
2022-11-05T03:35:48.836Z,1277.19
2022-11-05T03:36:48.587Z,1277.19
2022-11-05T03:37:48.711Z,1277.19
2022-11-05T03:38:48.702Z,1277.19
2022-11-05T03:39:48.806Z,1277.19
2022-11-05T03:40:48.564Z,1277.19
2022-11-05T03:41:48.658Z,1277.19
2022-11-05T03:42:48.581Z,1277.19
2022-11-05T03:43:48.439Z,1277.19
2022-11-05T03:44:48.478Z,1277.19
2022-11-05T03:45:48.561Z,1277.19
2022-11-05T03:46:48.660Z,1277.19
2022-11-05T03:47:48.496Z,1277.19
2022-11-05T03:48:48.615Z,1277.19
2022-11-05T03:49:48.423Z,1277.19
2022-11-05T03:50:48.485Z,1277.19
2022-11-05T03:51:48.492Z,1277.19
2022-11-05T03:52:48.457Z,1277.19
2022-11-05T03:53:48.447Z,1277.19
2022-11-05T03:54:48.317Z,1277.19
2022-11-05T03:55:48.374Z,1277.19
2022-11-05T03:56:48.333Z,1277.19
2022-11-05T03:57:48.345Z,1277.19
2022-11-05T03:58:48.513Z,1277.19
2022-11-05T03:59:48.406Z,1277.19
2022-11-05T04:00:48.333Z,1277.19
2022-11-05T04:01:48.445Z,1277.19
2022-11-05T04:02:48.464Z,1277.19
2022-11-05T04:03:48.215Z,1277.19
2022-11-05T04:04:48.221Z,1277.19
2022-11-05T04:05:48.333Z,1277.19
2022-11-05T04:06:48.229Z,1277.19
2022-11-05T04:07:48.473Z,1277.19
2022-11-05T04:08:48.272Z,1277.19
2022-11-05T04:09:48.287Z,1277.19
2022-11-05T04:10:48.197Z,1277.19
2022-11-05T04:11:48.172Z,1277.19
2022-11-05T04:12:48.218Z,1277.19
2022-11-05T04:13:48.204Z,1277.19
2022-11-05T04:14:48.216Z,1277.19
2022-11-05T04:15:48.081Z,1277.19
2022-11-05T04:16:48.079Z,1277.19
2022-11-05T04:17:48.058Z,1277.19
2022-11-05T04:18:48.116Z,1277.19
2022-11-05T04:19:48.095Z,1277.19
2022-11-05T04:20:48.043Z,1277.19
2022-11-05T04:21:48.123Z,1277.19
2022-11-05T04:22:48.066Z,1277.19
2022-11-05T04:23:47.996Z,1277.19
2022-11-05T04:24:48.286Z,1277.19
2022-11-05T04:25:48.101Z,1277.19
2022-11-05T04:26:48.083Z,1277.19
2022-11-05T04:27:48.177Z,1277.19
2022-11-05T04:28:47.983Z,1277.19
2022-11-05T04:29:47.995Z,1277.19
2022-11-05T04:30:47.963Z,1277.19
2022-11-05T04:31:48.225Z,1277.19
2022-11-05T04:32:48.069Z,1277.19
2022-11-05T04:33:48.059Z,1277.19
2022-11-05T04:34:48.043Z,1277.19
2022-11-05T04:35:48.463Z,1277.19
2022-11-05T04:36:48.149Z,1277.19
2022-11-05T04:37:47.999Z,1277.19
2022-11-05T04:38:47.966Z,1277.19
2022-11-05T04:39:47.978Z,1277.19
2022-11-05T04:40:47.981Z,1277.19
2022-11-05T04:41:47.934Z,1277.19
2022-11-05T04:42:48.089Z,1277.19
2022-11-05T04:43:48.082Z,1277.19
2022-11-05T04:44:47.933Z,1277.19
2022-11-05T04:45:48.013Z,1277.19
2022-11-05T04:46:47.995Z,1277.19
2022-11-05T04:47:48.172Z,1277.19
2022-11-05T04:48:48.145Z,1277.19
2022-11-05T04:49:47.866Z,1277.19
2022-11-05T04:50:48.032Z,1277.19
2022-11-05T04:51:47.898Z,1277.19
2022-11-05T04:52:47.839Z,1277.19
2022-11-05T04:53:47.916Z,1277.19
2022-11-05T04:54:47.987Z,1277.19
2022-11-05T04:55:47.778Z,1277.19
2022-11-05T04:56:47.835Z,1277.19
2022-11-05T04:57:47.753Z,1277.19
2022-11-05T04:58:50.858Z,1277.19
2022-11-05T04:59:47.934Z,1277.19
2022-11-05T05:00:47.921Z,1277.19
2022-11-05T05:01:48.828Z,1277.19
2022-11-05T05:02:47.564Z,1277.19
2022-11-05T05:03:47.722Z,1277.19
2022-11-05T05:04:47.586Z,1277.19
2022-11-05T05:05:47.674Z,1277.19
2022-11-05T05:06:47.694Z,1277.19
2022-11-05T05:07:47.706Z,1277.19
2022-11-05T05:08:47.632Z,1277.19
2022-11-05T05:09:47.964Z,1277.19
2022-11-05T05:10:47.608Z,1277.19
2022-11-05T05:11:47.636Z,1277.19
2022-11-05T05:12:47.530Z,1277.19
2022-11-05T05:13:47.636Z,1277.19
2022-11-05T05:14:47.781Z,1277.19
2022-11-05T05:15:48.634Z,1277.19
2022-11-05T05:16:47.598Z,1277.19
2022-11-05T05:17:47.594Z,1277.19
2022-11-05T05:18:47.577Z,1277.19
2022-11-05T05:19:47.682Z,1277.19
2022-11-05T05:20:47.457Z,1277.19
2022-11-05T05:21:47.395Z,1277.19
2022-11-05T05:22:47.596Z,1277.19
2022-11-05T05:23:47.669Z,1277.19
2022-11-05T05:24:52.444Z,1277.19
2022-11-05T05:25:48.424Z,1277.19
2022-11-05T05:26:47.415Z,1277.19
2022-11-05T05:27:47.480Z,1277.19
2022-11-05T05:28:47.458Z,1277.19
2022-11-05T05:29:47.341Z,1277.19
2022-11-05T05:30:47.499Z,1277.19
2022-11-05T05:31:47.471Z,1277.19
2022-11-05T05:32:47.294Z,1277.19
2022-11-05T05:33:47.938Z,1277.19
2022-11-05T05:35:56.401Z,947.87
2022-11-05T05:36:56.365Z,947.85
2022-11-05T05:37:56.360Z,947.93
2022-11-05T05:38:56.339Z,947.90
2022-11-05T05:39:56.355Z,947.84
2022-11-05T05:40:56.343Z,947.89
2022-11-05T05:41:56.307Z,947.91
2022-11-05T05:42:56.290Z,947.92
2022-11-05T05:43:57.781Z,947.93
2022-11-05T05:44:56.292Z,947.98
2022-11-05T05:45:56.270Z,947.92
2022-11-05T05:46:56.245Z,947.93
2022-11-05T05:47:56.234Z,947.95
2022-11-05T05:48:56.223Z,947.96
2022-11-05T05:49:56.238Z,948.01
2022-11-05T05:50:56.236Z,947.98
2022-11-05T05:51:56.329Z,947.99
2022-11-05T05:52:56.343Z,948.02
2022-11-05T05:53:56.168Z,948.00
2022-11-05T05:54:56.153Z,948.00
2022-11-05T05:55:56.156Z,948.06
2022-11-05T05:56:56.150Z,948.06
2022-11-05T05:57:56.138Z,948.08
2022-11-05T05:58:56.125Z,948.08
2022-11-05T05:59:56.096Z,948.10
2022-11-05T06:00:56.116Z,948.09
2022-11-05T06:01:56.164Z,948.07
2022-11-05T06:02:56.151Z,948.16
2022-11-05T06:03:56.067Z,948.14
2022-11-05T06:04:56.036Z,948.23
2022-11-05T06:05:56.026Z,948.24
2022-11-05T06:06:56.015Z,948.26
2022-11-05T06:07:56.025Z,948.25
2022-11-05T06:08:56.008Z,948.25
2022-11-05T06:09:56.001Z,948.25
2022-11-05T06:10:56.139Z,948.27
2022-11-05T06:11:55.980Z,948.32
2022-11-05T06:12:55.966Z,948.31
2022-11-05T06:13:55.933Z,948.31
2022-11-05T06:14:56.013Z,948.29
2022-11-05T06:15:55.940Z,948.36
2022-11-05T06:16:55.909Z,948.36
2022-11-05T06:17:55.887Z,948.38
2022-11-05T06:18:55.873Z,948.37
2022-11-05T06:19:55.860Z,948.36
2022-11-05T06:20:55.862Z,948.47
2022-11-05T06:21:55.863Z,948.49
2022-11-05T06:22:55.875Z,948.47
2022-11-05T06:23:55.821Z,948.50
2022-11-05T06:24:55.826Z,948.52
2022-11-05T06:25:55.795Z,948.53
2022-11-05T06:26:55.819Z,948.60
2022-11-05T06:27:55.791Z,948.60
2022-11-05T06:28:55.757Z,948.61
2022-11-05T06:29:55.754Z,948.63
2022-11-05T06:30:55.739Z,948.65
2022-11-05T06:31:55.792Z,948.68
2022-11-05T06:32:55.752Z,948.64
2022-11-05T06:33:55.723Z,948.70
2022-11-05T06:34:55.697Z,948.66
2022-11-05T06:35:55.681Z,948.75
2022-11-05T06:36:55.694Z,948.71
2022-11-05T06:37:55.686Z,948.68
2022-11-05T06:38:55.657Z,948.78
2022-11-05T06:39:55.635Z,948.74
2022-11-05T06:40:55.622Z,948.74
2022-11-05T06:42:56.595Z,948.72
2022-11-05T06:43:55.618Z,948.69
2022-11-05T06:44:55.582Z,948.76
2022-11-05T06:45:55.582Z,948.75
2022-11-05T06:46:55.550Z,948.79
2022-11-05T06:47:55.561Z,948.76
2022-11-05T06:48:55.529Z,948.78
2022-11-05T06:49:55.517Z,948.79
2022-11-05T06:50:55.515Z,948.79
2022-11-05T06:51:55.493Z,948.85
2022-11-05T06:52:55.499Z,948.83
2022-11-05T06:53:55.474Z,948.83
2022-11-05T06:54:55.457Z,948.83
2022-11-05T06:55:55.448Z,948.86
2022-11-05T06:56:55.460Z,948.90
2022-11-05T06:57:55.428Z,948.93
2022-11-05T06:58:55.413Z,948.91
2022-11-05T07:00:00.596Z,948.91
2022-11-05T07:00:56.501Z,948.97
2022-11-05T07:01:55.467Z,948.93
2022-11-05T07:02:55.392Z,948.99
2022-11-05T07:03:55.355Z,948.96
2022-11-05T07:04:55.344Z,949.01
2022-11-05T07:05:55.352Z,948.99
2022-11-05T07:06:55.318Z,949.04
2022-11-05T07:07:55.308Z,949.03
2022-11-05T07:08:55.319Z,949.11
2022-11-05T07:09:55.287Z,949.10
2022-11-05T07:10:55.290Z,949.13
2022-11-05T07:11:55.261Z,949.17
2022-11-05T07:12:55.247Z,949.10
2022-11-05T07:13:55.258Z,949.15
2022-11-05T07:14:55.237Z,949.18
2022-11-05T07:15:55.240Z,949.24
2022-11-05T07:16:55.225Z,949.22
2022-11-05T07:17:55.200Z,949.29
2022-11-05T07:18:55.204Z,949.26
2022-11-05T07:19:55.168Z,949.26
2022-11-05T07:20:56.330Z,949.37
2022-11-05T07:21:55.161Z,949.34
2022-11-05T07:22:55.152Z,949.41
2022-11-05T07:23:55.122Z,949.37
2022-11-05T07:24:55.108Z,949.44
2022-11-05T07:25:55.117Z,949.42
2022-11-05T07:26:55.111Z,949.44
2022-11-05T07:27:55.107Z,949.50
2022-11-05T07:28:55.063Z,949.46
2022-11-05T07:29:55.058Z,949.45
2022-11-05T07:30:55.038Z,949.46
2022-11-05T07:31:55.051Z,949.54
2022-11-05T07:32:55.029Z,949.51
2022-11-05T07:33:55.030Z,949.47
2022-11-05T07:34:54.994Z,949.49
2022-11-05T07:35:54.994Z,949.55
2022-11-05T07:36:55.077Z,949.45
2022-11-05T07:37:54.983Z,949.55
2022-11-05T07:39:00.051Z,949.61
2022-11-05T07:39:55.937Z,949.50
2022-11-05T07:40:54.947Z,949.61
2022-11-05T07:41:54.943Z,949.61
2022-11-05T07:42:54.910Z,949.60
2022-11-05T07:43:54.894Z,949.65
2022-11-05T07:44:54.890Z,949.66
2022-11-05T07:45:54.896Z,949.67
2022-11-05T07:46:54.868Z,949.67
2022-11-05T07:47:54.870Z,949.69
2022-11-05T07:48:54.852Z,949.69
2022-11-05T07:49:54.822Z,949.68
2022-11-05T07:50:54.852Z,949.66
2022-11-05T07:51:54.810Z,949.68
2022-11-05T07:52:54.792Z,949.68
2022-11-05T07:53:54.780Z,949.65
2022-11-05T07:54:54.789Z,949.70
2022-11-05T07:55:54.758Z,949.76
2022-11-05T07:56:54.756Z,949.74
2022-11-05T07:57:54.734Z,949.76
2022-11-05T07:58:54.754Z,949.74
2022-11-05T07:59:54.714Z,949.79
2022-11-05T08:00:54.897Z,949.78
2022-11-05T08:01:54.958Z,949.78
2022-11-05T08:02:54.892Z,949.77
2022-11-05T08:03:54.710Z,949.78
2022-11-05T08:04:54.657Z,949.76
2022-11-05T08:05:54.642Z,949.75
2022-11-05T08:06:54.673Z,949.71
2022-11-05T08:07:54.621Z,949.72
2022-11-05T08:08:54.613Z,949.73
2022-11-05T08:09:54.600Z,949.70
2022-11-05T08:10:54.586Z,949.75
2022-11-05T08:11:57.409Z,949.76
2022-11-05T08:12:55.597Z,949.81
2022-11-05T08:13:54.555Z,949.81
2022-11-05T08:14:54.553Z,949.88
2022-11-05T08:15:54.560Z,949.92
2022-11-05T08:16:54.517Z,949.93
2022-11-05T08:17:54.523Z,949.97
2022-11-05T08:18:54.504Z,949.97
2022-11-05T08:19:54.586Z,950.02
2022-11-05T08:20:54.504Z,949.98
2022-11-05T08:21:54.468Z,950.02
2022-11-05T08:22:54.450Z,950.01
2022-11-05T08:23:54.472Z,949.97
2022-11-05T08:24:54.423Z,949.97
2022-11-05T08:25:54.413Z,950.00
2022-11-05T08:26:54.415Z,950.03
2022-11-05T08:27:54.417Z,949.95
2022-11-05T08:28:54.383Z,949.94
2022-11-05T08:29:54.369Z,949.95
2022-11-05T08:30:54.356Z,949.97
2022-11-05T08:31:54.346Z,949.99
2022-11-05T08:32:54.363Z,949.98
2022-11-05T08:33:58.348Z,950.03
2022-11-05T08:34:55.308Z,950.03
2022-11-05T08:35:54.433Z,950.05
2022-11-05T08:36:54.288Z,950.06
2022-11-05T08:37:54.278Z,950.12
2022-11-05T08:38:54.295Z,950.10
2022-11-05T08:39:54.285Z,950.03
2022-11-05T08:40:54.247Z,950.06
2022-11-05T08:41:54.254Z,950.02
2022-11-05T08:42:54.220Z,949.99
2022-11-05T08:43:54.210Z,950.08
2022-11-05T08:44:54.211Z,950.02
2022-11-05T08:45:54.222Z,950.03
2022-11-05T08:46:54.181Z,950.03
2022-11-05T08:48:09.077Z,950.10
2022-11-05T08:48:54.174Z,950.13
2022-11-05T08:50:34.034Z,950.14
2022-11-05T08:50:55.049Z,950.09
2022-11-05T08:51:54.276Z,950.13
2022-11-05T08:52:54.163Z,950.11
2022-11-05T08:53:54.102Z,950.14
2022-11-05T08:54:54.111Z,950.16
2022-11-05T08:55:54.095Z,950.18
2022-11-05T08:56:54.224Z,950.16
2022-11-05T08:57:54.050Z,950.21
2022-11-05T08:58:54.054Z,950.19
2022-11-05T08:59:54.031Z,950.17
2022-11-05T09:00:54.066Z,950.17
2022-11-05T09:01:54.168Z,950.21
2022-11-05T09:02:54.018Z,950.18
2022-11-05T09:03:54.006Z,950.17
2022-11-05T09:04:53.978Z,950.21
2022-11-05T09:05:53.960Z,950.24
2022-11-05T09:06:53.946Z,950.18
2022-11-05T09:07:59.413Z,950.22
2022-11-05T09:08:54.945Z,950.25
2022-11-05T09:09:53.932Z,950.24
2022-11-05T09:10:53.919Z,950.27
2022-11-05T09:12:54.877Z,950.31
2022-11-05T09:13:53.899Z,950.30
2022-11-05T09:14:53.855Z,950.34
2022-11-05T09:15:53.845Z,950.33
2022-11-05T09:16:53.833Z,950.33
2022-11-05T09:17:53.827Z,950.31
2022-11-05T09:18:53.841Z,950.37
2022-11-05T09:19:53.810Z,950.36
2022-11-05T09:20:53.788Z,950.41
2022-11-05T09:21:53.777Z,950.40
2022-11-05T09:22:53.787Z,950.38
2022-11-05T09:23:53.812Z,950.43
2022-11-05T09:24:53.740Z,950.44
2022-11-05T09:25:53.751Z,950.44
2022-11-05T09:26:53.722Z,950.47
2022-11-05T09:27:53.735Z,950.46
2022-11-05T09:28:53.704Z,950.53
2022-11-05T09:29:53.686Z,950.51
2022-11-05T09:30:53.682Z,950.48
2022-11-05T09:31:53.679Z,950.50
2022-11-05T09:33:02.766Z,950.54
2022-11-05T09:33:53.633Z,950.55
2022-11-05T09:34:53.653Z,950.56
2022-11-05T09:35:53.759Z,950.57
2022-11-05T09:36:53.613Z,950.59
2022-11-05T09:37:58.212Z,950.54
2022-11-05T09:38:54.598Z,950.58
2022-11-05T09:39:53.584Z,950.53
2022-11-05T09:40:53.559Z,950.60
2022-11-05T09:41:53.561Z,950.59
2022-11-05T09:42:53.565Z,950.65
2022-11-05T09:43:53.565Z,950.65
2022-11-05T09:44:53.563Z,950.65
2022-11-05T09:45:53.608Z,950.69
2022-11-05T09:46:53.543Z,950.69
2022-11-05T09:47:53.589Z,950.65
2022-11-05T09:48:53.474Z,950.68
2022-11-05T09:49:53.477Z,950.68
2022-11-05T09:50:53.455Z,950.67
2022-11-05T09:51:53.431Z,950.70
2022-11-05T09:52:53.419Z,950.69
2022-11-05T09:53:53.454Z,950.66
2022-11-05T09:54:53.395Z,950.69
2022-11-05T09:55:53.418Z,950.69
2022-11-05T09:56:53.374Z,950.77
2022-11-05T09:57:53.371Z,950.73
2022-11-05T09:58:53.365Z,950.73
2022-11-05T09:59:53.338Z,950.75
2022-11-05T10:00:53.409Z,950.75
2022-11-05T10:01:53.488Z,950.74
2022-11-05T10:02:53.319Z,950.75
2022-11-05T10:03:53.312Z,950.75
2022-11-05T10:04:53.360Z,950.81
2022-11-05T10:05:53.387Z,950.79
2022-11-05T10:06:53.259Z,950.85
2022-11-05T10:07:53.246Z,950.82
2022-11-05T10:08:53.273Z,950.86
2022-11-05T10:09:53.234Z,950.86
2022-11-05T10:10:53.250Z,950.87
2022-11-05T10:11:53.223Z,950.87
2022-11-05T10:12:53.192Z,950.86
2022-11-05T10:13:53.204Z,950.81
2022-11-05T10:14:53.186Z,950.88
2022-11-05T10:15:53.157Z,950.74
2022-11-05T10:16:53.155Z,950.75
2022-11-05T10:17:53.133Z,950.77
2022-11-05T10:18:53.135Z,950.82
2022-11-05T10:19:53.130Z,950.80
2022-11-05T10:20:53.107Z,950.85
2022-11-05T10:22:06.033Z,950.82
2022-11-05T10:22:54.092Z,950.81
2022-11-05T10:23:53.071Z,950.79
2022-11-05T10:24:53.055Z,950.80
2022-11-05T10:25:53.082Z,950.79
2022-11-05T10:26:53.069Z,950.86
2022-11-05T10:27:53.038Z,950.84
2022-11-05T10:28:53.022Z,950.85
2022-11-05T10:29:52.998Z,950.86
2022-11-05T10:30:52.991Z,950.87
2022-11-05T10:31:53.004Z,950.89
2022-11-05T10:32:52.963Z,950.85
2022-11-05T10:33:52.953Z,950.87
2022-11-05T10:34:52.956Z,950.94
2022-11-05T10:35:52.949Z,951.04
2022-11-05T10:36:52.919Z,950.98
2022-11-05T10:37:52.910Z,950.97
2022-11-05T10:38:52.895Z,950.98
2022-11-05T10:39:52.886Z,950.99
2022-11-05T10:40:52.884Z,951.03
2022-11-05T10:41:52.925Z,951.04
2022-11-05T10:42:52.850Z,951.02
2022-11-05T10:43:52.858Z,951.01
2022-11-05T10:44:52.823Z,951.02
2022-11-05T10:45:52.825Z,951.12
2022-11-05T10:46:52.839Z,951.09
2022-11-05T10:47:52.801Z,951.11
2022-11-05T10:48:52.793Z,951.11
2022-11-05T10:49:52.817Z,951.08
2022-11-05T10:50:52.777Z,951.15
2022-11-05T10:51:52.762Z,951.13
2022-11-05T10:52:52.761Z,951.09
2022-11-05T10:53:57.236Z,951.10
2022-11-05T10:54:53.740Z,951.09
2022-11-05T10:55:52.703Z,951.09
2022-11-05T10:56:52.694Z,951.13
2022-11-05T10:57:52.683Z,951.11
2022-11-05T10:58:52.706Z,951.07
2022-11-05T10:59:52.675Z,951.10
2022-11-05T11:00:52.713Z,951.06
2022-11-05T11:01:52.757Z,951.05
2022-11-05T11:02:52.638Z,951.07
2022-11-05T11:03:52.630Z,951.07
2022-11-05T11:04:52.600Z,951.10
2022-11-05T11:05:52.613Z,951.12
2022-11-05T11:06:52.577Z,951.12
2022-11-05T11:07:52.562Z,951.10
2022-11-05T11:08:52.549Z,951.10
2022-11-05T11:09:52.581Z,951.13
2022-11-05T11:10:52.574Z,951.16
2022-11-05T11:11:52.524Z,951.09
2022-11-05T11:12:52.511Z,951.16
2022-11-05T11:13:52.518Z,951.16
2022-11-05T11:14:52.484Z,951.15
2022-11-05T11:15:52.516Z,951.19
2022-11-05T11:16:52.469Z,951.21
2022-11-05T11:17:52.451Z,951.21
2022-11-05T11:18:52.439Z,951.19
2022-11-05T11:19:52.440Z,951.21
2022-11-05T11:20:52.413Z,951.22
2022-11-05T11:21:52.465Z,951.18
2022-11-05T11:22:52.393Z,951.19
2022-11-05T11:23:52.381Z,951.17
2022-11-05T11:24:52.372Z,951.14
2022-11-05T11:25:52.362Z,951.10
2022-11-05T11:26:52.362Z,951.11
2022-11-05T11:27:52.350Z,951.14
2022-11-05T11:28:52.325Z,951.06
2022-11-05T11:29:52.311Z,951.08
2022-11-05T11:30:52.302Z,951.05
2022-11-05T11:31:52.328Z,951.11
2022-11-05T11:32:52.300Z,951.14
2022-11-05T11:33:52.281Z,951.10
2022-11-05T11:34:52.255Z,951.09
2022-11-05T11:35:59.981Z,951.12
2022-11-05T11:36:52.379Z,951.06
2022-11-05T11:37:52.287Z,951.10
2022-11-05T11:38:52.260Z,951.16
2022-11-05T11:39:52.276Z,951.18
2022-11-05T11:40:52.247Z,951.21
2022-11-05T11:41:52.354Z,951.18
2022-11-05T11:42:52.182Z,951.21
2022-11-05T11:43:52.198Z,951.22
2022-11-05T11:44:52.170Z,951.22
2022-11-05T11:45:52.170Z,951.20
2022-11-05T11:46:52.133Z,951.21
2022-11-05T11:47:52.195Z,951.19
2022-11-05T11:48:52.127Z,951.18
2022-11-05T11:49:52.088Z,951.19
2022-11-05T11:50:52.094Z,951.26
2022-11-05T11:51:52.093Z,951.22
2022-11-05T11:52:52.050Z,951.16
2022-11-05T11:53:52.051Z,951.18
2022-11-05T11:54:52.059Z,951.23
2022-11-05T11:55:52.025Z,951.20
2022-11-05T11:56:52.011Z,951.24
2022-11-05T11:57:52.031Z,951.22
2022-11-05T11:58:51.984Z,951.21
2022-11-05T12:00:08.316Z,951.24
2022-11-05T12:00:52.983Z,951.21
2022-11-05T12:01:52.174Z,951.20
2022-11-05T12:02:56.015Z,951.11
2022-11-05T12:03:52.938Z,951.11
2022-11-05T12:04:51.930Z,951.12
2022-11-05T12:05:51.935Z,951.16
2022-11-05T12:06:51.950Z,951.17
2022-11-05T12:07:51.885Z,951.19
2022-11-05T12:08:58.342Z,951.13
2022-11-05T12:09:52.857Z,951.15
2022-11-05T12:10:51.884Z,951.17
2022-11-05T12:11:51.838Z,951.18
2022-11-05T12:12:51.822Z,951.18
2022-11-05T12:13:51.837Z,951.25
2022-11-05T12:14:51.801Z,951.23
2022-11-05T12:15:51.805Z,951.18
2022-11-05T12:16:51.792Z,951.20
2022-11-05T12:17:51.770Z,951.21
2022-11-05T12:18:51.754Z,951.22
2022-11-05T12:19:51.875Z,951.17
2022-11-05T12:20:57.803Z,951.19
2022-11-05T12:21:53.601Z,951.16